Time,TemperatureF,DewpointF,PressureIn,WindDirection,WindDirectionDegrees,WindSpeedMPH,WindSpeedGustMPH,Humidity,HourlyPrecipIn,Conditions,Clouds,dailyrainin,SoftwareType,DateUTC
2013-05-03 07:39:00,63.3,58.0,29.99,SSE,149,3.0,3.0,83,0.00,,,0.00,Wunderground v.1.15,2013-05-03 12:39:00,
2013-05-03 07:40:00,63.3,57.7,29.98,SSE,151,3.0,3.0,82,0.00,,,0.00,Wunderground v.1.15,2013-05-03 12:40:00,
2013-05-03 07:41:00,63.3,57.7,29.99,East,80,3.0,5.0,82,0.00,,,0.00,Wunderground v.1.15,2013-05-03 12:41:00,
2013-05-03 07:44:00,63.3,57.4,29.98,SSE,166,3.0,5.0,81,0.00,,,0.00,Wunderground v.1.15,2013-05-03 12:44:00,
2013-05-03 07:49:00,63.5,57.6,29.98,North,5,3.0,4.0,81,0.00,,,0.00,Wunderground v.1.15,2013-05-03 12:49:00,
2013-05-03 07:54:00,63.6,57.7,29.98,East,82,3.0,6.0,81,0.00,,,0.00,Wunderground v.1.15,2013-05-03 12:54:00,
2013-05-03 07:59:00,63.7,57.8,29.98,SE,145,3.0,6.0,81,0.00,,,0.00,Wunderground v.1.15,2013-05-03 12:59:00,
2013-05-03 08:05:00,64.1,58.1,29.98,NNE,22,4.0,6.0,81,0.00,,,0.00,Wunderground v.1.15,2013-05-03 13:05:00,
2013-05-03 08:11:00,64.6,57.9,29.98,South,169,4.0,6.0,79,0.00,,,0.00,Wunderground v.1.15,2013-05-03 13:11:00,
2013-05-03 08:16:00,64.7,57.7,29.98,NE,46,3.0,6.0,78,0.00,,,0.00,Wunderground v.1.15,2013-05-03 13:16:00,
2013-05-03 08:21:00,64.7,58.0,29.98,South,176,3.0,9.0,79,0.00,,,0.00,Wunderground v.1.15,2013-05-03 13:21:00,
2013-05-03 08:34:00,64.8,57.8,29.97,NNE,23,3.0,3.0,78,0.00,,,0.00,Wunderground v.1.15,2013-05-03 13:34:00,
2013-05-03 08:40:00,64.8,57.4,29.98,East,92,4.0,9.0,77,0.00,,,0.00,Wunderground v.1.15,2013-05-03 13:40:00,
2013-05-03 08:46:00,64.9,57.9,29.97,SSE,154,4.0,5.0,78,0.00,,,0.00,Wunderground v.1.15,2013-05-03 13:46:00,
2013-05-03 08:52:00,65.0,58.0,29.97,South,176,3.0,6.0,78,0.00,,,0.00,Wunderground v.1.15,2013-05-03 13:52:00,
2013-05-03 08:58:00,65.1,58.1,29.97,SE,146,3.0,6.0,78,0.00,,,0.00,Wunderground v.1.15,2013-05-03 13:58:00,
2013-05-03 09:04:00,65.1,57.3,29.97,West,265,4.0,5.0,76,0.00,,,0.00,Wunderground v.1.15,2013-05-03 14:04:00,
2013-05-03 09:09:00,65.3,57.9,29.96,SSE,162,4.0,6.0,77,0.00,,,0.00,Wunderground v.1.15,2013-05-03 14:09:00,
2013-05-03 09:15:00,65.6,58.6,29.96,ENE,57,4.0,7.0,78,0.00,,,0.00,Wunderground v.1.15,2013-05-03 14:15:00,
2013-05-03 10:46:00,69.4,58.8,29.94,East,84,4.0,4.0,69,0.00,,,0.00,Wunderground v.1.15,2013-05-03 15:46:00,
2013-05-03 10:52:00,70.6,60.7,29.94,SSE,148,3.0,6.0,71,0.00,,,0.00,Wunderground v.1.15,2013-05-03 15:52:00,
2013-05-03 10:58:00,71.4,60.3,29.94,South,171,4.0,9.0,68,0.00,,,0.00,Wunderground v.1.15,2013-05-03 15:58:00,
2013-05-03 11:04:00,71.9,59.5,29.93,South,179,5.0,5.0,65,0.00,,,0.00,Wunderground v.1.15,2013-05-03 16:04:00,
2013-05-03 11:10:00,71.5,60.0,29.93,ENE,57,5.0,5.0,67,0.00,,,0.00,Wunderground v.1.15,2013-05-03 16:10:00,
2013-05-03 11:15:00,71.6,59.2,29.93,East,94,5.0,10.0,65,0.00,,,0.00,Wunderground v.1.15,2013-05-03 16:15:00,
2013-05-03 11:20:00,71.9,59.9,29.93,West,279,5.0,5.0,66,0.00,,,0.00,Wunderground v.1.15,2013-05-03 16:20:00,
2013-05-03 11:25:00,71.9,58.6,29.93,South,174,5.0,10.0,63,0.00,,,0.00,Wunderground v.1.15,2013-05-03 16:25:00,
2013-05-03 11:31:00,72.5,60.1,29.92,East,88,5.0,8.0,65,0.00,,,0.00,Wunderground v.1.15,2013-05-03 16:31:00,
2013-05-03 11:36:00,72.4,59.1,29.92,South,191,5.0,8.0,63,0.00,,,0.00,Wunderground v.1.15,2013-05-03 16:36:00,
2013-05-03 11:42:00,72.2,60.2,29.92,SW,236,5.0,6.0,66,0.00,,,0.00,Wunderground v.1.15,2013-05-03 16:42:00,
2013-05-03 11:47:00,72.2,59.3,29.92,NE,53,4.0,7.0,64,0.00,,,0.00,Wunderground v.1.15,2013-05-03 16:47:00,
2013-05-03 11:53:00,71.8,58.1,29.92,NNE,17,5.0,7.0,62,0.00,,,0.00,Wunderground v.1.15,2013-05-03 16:53:00,
2013-05-03 11:58:00,71.9,59.1,29.91,NE,49,5.0,8.0,64,0.00,,,0.00,Wunderground v.1.15,2013-05-03 16:58:00,
2013-05-03 12:04:00,71.9,58.6,29.92,SE,136,5.0,8.0,63,0.00,,,0.00,Wunderground v.1.15,2013-05-03 17:04:00,
2013-05-03 12:10:00,73.1,58.8,29.91,SE,127,4.0,5.0,61,0.00,,,0.00,Wunderground v.1.15,2013-05-03 17:10:00,
2013-05-03 12:15:00,72.8,59.9,29.91,SSE,168,5.0,7.0,64,0.00,,,0.00,Wunderground v.1.15,2013-05-03 17:15:00,
2013-05-03 14:20:00,75.0,57.2,29.86,South,187,7.0,7.0,54,0.00,,,0.00,Wunderground v.1.15,2013-05-03 19:20:00,
2013-05-03 14:26:00,74.9,57.1,29.86,SW,223,7.0,11.0,54,0.00,,,0.00,Wunderground v.1.15,2013-05-03 19:26:00,
2013-05-03 14:31:00,75.1,56.8,29.86,SSW,210,8.0,12.0,53,0.00,,,0.00,Wunderground v.1.15,2013-05-03 19:31:00,
2013-05-03 14:37:00,75.4,57.6,29.86,South,186,10.0,15.0,54,0.00,,,0.00,Wunderground v.1.15,2013-05-03 19:37:00,
2013-05-03 14:42:00,76.0,59.7,29.85,SSE,150,8.0,9.0,57,0.00,,,0.00,Wunderground v.1.15,2013-05-03 19:42:00,
2013-05-03 14:47:00,75.9,56.5,29.85,SSE,165,7.0,11.0,51,0.00,,,0.00,Wunderground v.1.15,2013-05-03 19:47:00,
2013-05-03 14:52:00,75.3,57.0,29.85,SE,141,8.0,13.0,53,0.00,,,0.00,Wunderground v.1.15,2013-05-03 19:52:00,
2013-05-03 14:57:00,75.2,56.9,29.85,SE,134,9.0,13.0,53,0.00,,,0.00,Wunderground v.1.15,2013-05-03 19:57:00,
2013-05-03 15:03:00,74.7,59.4,29.84,ENE,60,6.0,11.0,59,0.00,,,0.00,Wunderground v.1.15,2013-05-03 20:03:00,
2013-05-03 15:08:00,74.4,57.7,29.85,SSE,150,4.0,11.0,56,0.00,,,0.00,Wunderground v.1.15,2013-05-03 20:08:00,
2013-05-03 15:13:00,74.1,56.9,29.84,NE,55,4.0,9.0,55,0.00,,,0.00,Wunderground v.1.15,2013-05-03 20:13:00,
2013-05-03 15:18:00,74.1,57.9,29.84,South,176,4.0,9.0,57,0.00,,,0.00,Wunderground v.1.15,2013-05-03 20:18:00,
2013-05-03 15:23:00,73.9,57.2,29.84,SSE,149,4.0,14.0,56,0.00,,,0.00,Wunderground v.1.15,2013-05-03 20:23:00,
2013-05-03 15:29:00,73.8,57.1,29.84,SSW,195,5.0,14.0,56,0.00,,,0.00,Wunderground v.1.15,2013-05-03 20:29:00,
2013-05-03 15:35:00,74.2,57.0,29.83,SE,138,6.0,10.0,55,0.00,,,0.00,Wunderground v.1.15,2013-05-03 20:35:00,
2013-05-03 15:40:00,74.9,57.1,29.83,SSW,211,6.0,7.0,54,0.00,,,0.00,Wunderground v.1.15,2013-05-03 20:40:00,
2013-05-03 15:45:00,75.2,57.4,29.83,ESE,118,5.0,11.0,54,0.00,,,0.00,Wunderground v.1.15,2013-05-03 20:45:00,
2013-05-03 15:50:00,74.9,57.1,29.83,SE,144,5.0,5.0,54,0.00,,,0.00,Wunderground v.1.15,2013-05-03 20:50:00,
2013-05-03 15:56:00,75.0,57.7,29.82,SSW,200,4.0,9.0,55,0.00,,,0.00,Wunderground v.1.15,2013-05-03 20:56:00,
2013-05-03 16:01:00,74.9,56.6,29.82,NE,34,5.0,5.0,53,0.00,,,0.00,Wunderground v.1.15,2013-05-03 21:01:00,
2013-05-03 16:06:00,74.1,55.9,29.82,SSE,161,5.0,9.0,53,0.00,,,0.00,Wunderground v.1.15,2013-05-03 21:06:00,
2013-05-03 16:11:00,74.1,56.4,29.82,ESE,103,5.0,10.0,54,0.00,,,0.00,Wunderground v.1.15,2013-05-03 21:11:00,
2013-05-03 16:16:00,73.8,55.6,29.82,South,175,5.0,10.0,53,0.00,,,0.00,Wunderground v.1.15,2013-05-03 21:16:00,
2013-05-03 16:21:00,74.0,57.3,29.81,WNW,291,6.0,6.0,56,0.00,,,0.00,Wunderground v.1.15,2013-05-03 21:21:00,
2013-05-03 16:27:00,74.2,57.0,29.81,SE,135,5.0,7.0,55,0.00,,,0.00,Wunderground v.1.15,2013-05-03 21:27:00,
2013-05-03 16:32:00,74.1,55.9,29.81,SW,223,4.0,5.0,53,0.00,,,0.00,Wunderground v.1.15,2013-05-03 21:32:00,
2013-05-03 16:38:00,74.1,56.9,29.82,ESE,115,4.0,7.0,55,0.00,,,0.00,Wunderground v.1.15,2013-05-03 21:38:00,
2013-05-03 16:43:00,73.8,57.1,29.82,ENE,73,4.0,5.0,56,0.00,,,0.00,Wunderground v.1.15,2013-05-03 21:43:00,
2013-05-03 16:49:00,73.3,57.1,29.81,ESE,111,4.0,8.0,57,0.00,,,0.00,Wunderground v.1.15,2013-05-03 21:49:00,
2013-05-03 16:55:00,73.0,57.3,29.81,South,183,4.0,6.0,58,0.00,,,0.00,Wunderground v.1.15,2013-05-03 21:55:00,
2013-05-03 17:00:00,72.9,56.8,29.81,SSE,166,4.0,4.0,57,0.00,,,0.00,Wunderground v.1.15,2013-05-03 22:00:00,
2013-05-03 17:06:00,73.0,57.3,29.81,ENE,65,4.0,10.0,58,0.00,,,0.00,Wunderground v.1.15,2013-05-03 22:06:00,
2013-05-03 17:11:00,72.7,56.6,29.81,ENE,66,4.0,4.0,57,0.00,,,0.00,Wunderground v.1.15,2013-05-03 22:11:00,
2013-05-03 18:05:00,71.1,57.4,29.81,ENE,69,6.0,10.0,62,0.00,,,0.00,Wunderground v.1.15,2013-05-03 23:05:00,
2013-05-03 18:11:00,70.2,57.0,29.81,NE,38,7.0,10.0,63,0.00,,,0.00,Wunderground v.1.15,2013-05-03 23:11:00,
2013-05-03 18:17:00,69.7,57.4,29.81,NNE,15,5.0,10.0,65,0.00,,,0.00,Wunderground v.1.15,2013-05-03 23:17:00,
2013-05-03 18:22:00,69.6,56.9,29.81,East,88,5.0,5.0,64,0.00,,,0.00,Wunderground v.1.15,2013-05-03 23:22:00,
2013-05-03 18:27:00,69.3,57.5,29.81,North,11,5.0,12.0,66,0.00,,,0.00,Wunderground v.1.15,2013-05-03 23:27:00,
2013-05-03 18:33:00,69.0,56.7,29.81,ENE,61,6.0,12.0,65,0.00,,,0.00,Wunderground v.1.15,2013-05-03 23:33:00,
2013-05-03 18:38:00,68.8,56.6,29.81,NNE,30,8.0,13.0,65,0.00,,,0.00,Wunderground v.1.15,2013-05-03 23:38:00,
2013-05-03 18:43:00,68.7,56.5,29.82,NE,40,7.0,7.0,65,0.00,,,0.00,Wunderground v.1.15,2013-05-03 23:43:00,
2013-05-03 18:48:00,68.6,56.4,29.82,SE,126,5.0,9.0,65,0.00,,,0.00,Wunderground v.1.15,2013-05-03 23:48:00,
2013-05-03 18:53:00,68.5,55.8,29.82,SSE,161,4.0,9.0,64,0.00,,,0.00,Wunderground v.1.15,2013-05-03 23:53:00,
2013-05-03 18:58:00,68.3,55.6,29.82,ENE,65,5.0,13.0,64,0.00,,,0.00,Wunderground v.1.15,2013-05-03 23:58:00,
2013-05-03 19:03:00,68.2,55.1,29.82,ESE,120,5.0,9.0,63,0.00,,,0.00,Wunderground v.1.15,2013-05-04 00:03:00,
2013-05-03 19:09:00,68.1,55.5,29.82,SSE,153,5.0,9.0,64,0.00,,,0.00,Wunderground v.1.15,2013-05-04 00:09:00,
2013-05-03 19:14:00,68.0,54.9,29.83,SSE,159,4.0,9.0,63,0.00,,,0.00,Wunderground v.1.15,2013-05-04 00:14:00,
2013-05-03 19:47:00,67.0,55.3,29.85,SW,220,7.0,7.0,66,0.00,,,0.00,Wunderground v.1.15,2013-05-04 00:47:00,
2013-05-03 19:52:00,61.6,53.6,29.86,WNW,282,8.0,10.0,75,0.00,,,0.00,Wunderground v.1.15,2013-05-04 00:52:00,
2013-05-03 19:57:00,56.9,52.4,29.87,West,272,10.0,13.0,85,0.00,,,0.01,Wunderground v.1.15,2013-05-04 00:57:00,
2013-05-03 20:03:00,55.4,52.5,29.88,WSW,258,12.0,12.0,90,0.17,,,0.03,Wunderground v.1.15,2013-05-04 01:03:00,
2013-05-03 20:08:00,54.9,52.3,29.88,SW,235,11.0,12.0,91,0.09,,,0.03,Wunderground v.1.15,2013-05-04 01:08:00,
2013-05-03 20:14:00,54.2,51.6,29.88,WSW,253,12.0,15.0,91,0.07,,,0.04,Wunderground v.1.15,2013-05-04 01:14:00,
2013-05-03 20:19:00,53.7,51.1,29.89,WSW,256,11.0,15.0,91,0.07,,,0.04,Wunderground v.1.15,2013-05-04 01:19:00,
2013-05-03 20:24:00,53.3,51.0,29.89,WSW,254,11.0,11.0,92,0.04,,,0.04,Wunderground v.1.15,2013-05-04 01:24:00,
2013-05-03 20:29:00,53.0,50.7,29.89,WSW,240,10.0,11.0,92,0.00,,,0.04,Wunderground v.1.15,2013-05-04 01:29:00,
2013-05-03 20:35:00,52.5,50.2,29.89,West,267,8.0,9.0,92,0.00,,,0.05,Wunderground v.1.15,2013-05-04 01:35:00,
2013-05-03 20:41:00,51.7,49.2,29.90,WSW,253,7.0,9.0,91,0.00,,,0.05,Wunderground v.1.15,2013-05-04 01:41:00,
2013-05-03 20:47:00,50.9,48.4,29.90,West,259,7.0,10.0,91,0.00,,,0.05,Wunderground v.1.15,2013-05-04 01:47:00,
2013-05-03 20:53:00,50.6,48.4,29.90,West,264,5.0,6.0,92,0.19,,,0.06,Wunderground v.1.15,2013-05-04 01:53:00,
2013-05-03 20:59:00,50.3,48.1,29.90,West,267,5.0,6.0,92,0.10,,,0.07,Wunderground v.1.15,2013-05-04 01:59:00,
2013-05-03 21:05:00,50.1,47.9,29.90,West,271,5.0,8.0,92,0.08,,,0.08,Wunderground v.1.15,2013-05-04 02:05:00,